Time;durP1;ratioP1;P1;durP2;ratioP2;P2;SDS_P1;SDS_P2;PMS_P1;PMS_P2;Temp;Humidity;BMP_temperature;BMP_pressure;BME280_temperature;BME280_humidity;BME280_pressure;Samples;Min_cycle;Max_cycle;Signal;HPM_P1;HPM_P2
2024/04/04 00:03:48;;;;;;;1999.90;999.90;;;;;;;9.52;100.00;100601.25;10374942;28;20054;-66
2024/04/04 00:08:50;;;;;;;1999.90;999.90;;;;;;;9.48;100.00;100611.03;10364435;28;20046;-66
2024/04/04 00:13:51;;;;;;;1999.90;999.90;;;;;;;9.29;100.00;100603.34;10381000;28;20065;-66
2024/04/04 00:18:53;;;;;;;1999.90;999.90;;;;;;;9.05;100.00;100596.88;10380653;28;20054;-66
2024/04/04 00:23:54;;;;;;;1999.90;999.90;;;;;;;9.12;100.00;100590.38;10380325;28;20046;-65
2024/04/04 00:28:56;;;;;;;1999.90;999.90;;;;;;;9.26;100.00;100577.41;10379369;28;20410;-65
2024/04/04 00:33:58;;;;;;;1999.90;999.90;;;;;;;9.04;100.00;100575.13;10379879;28;20053;-66
2024/04/04 00:38:59;;;;;;;1999.90;999.90;;;;;;;9.21;100.00;100563.78;10363120;28;20485;-66
2024/04/04 00:44:00;;;;;;;1999.90;999.90;;;;;;;9.04;100.00;100566.44;10362866;28;20559;-65
2024/04/04 00:49:02;;;;;;;1999.90;999.90;;;;;;;9.14;100.00;100561.56;10378773;28;20397;-66
2024/04/04 00:54:03;;;;;;;1999.90;999.90;;;;;;;9.41;100.00;100553.97;10385633;23;20455;-67
2024/04/04 00:59:10;;;;;;;1999.90;999.90;;;;;;;9.16;100.00;100568.38;10420094;28;20045;-67
2024/04/04 01:04:11;;;;;;;1999.90;999.90;;;;;;;9.40;100.00;100554.91;10403604;28;20053;-67
2024/04/04 01:09:15;;;;;;;1999.90;999.90;;;;;;;9.53;100.00;100550.66;10402439;28;20404;-67
2024/04/04 01:14:17;;;;;;;1999.90;999.90;;;;;;;9.44;100.00;100557.22;10402324;28;20389;-67
2024/04/04 01:19:18;;;;;;;1999.90;999.90;;;;;;;9.51;100.00;100546.44;10418638;28;20408;-67
2024/04/04 01:24:19;;;;;;;1999.90;999.90;;;;;;;9.59;100.00;100550.28;10418561;28;20451;-67
2024/04/04 01:29:21;;;;;;;1999.90;999.90;;;;;;;9.65;100.00;100531.66;10418606;28;20049;-67
2024/04/04 01:34:22;;;;;;;1999.90;999.90;;;;;;;9.46;100.00;100521.44;10418697;28;20057;-67
2024/04/04 01:39:26;;;;;;;1999.90;999.90;;;;;;;9.38;100.00;100515.78;10418744;28;20049;-67
2024/04/04 01:44:27;;;;;;;1999.90;999.90;;;;;;;9.19;100.00;100508.13;10417954;28;20164;-67
2024/04/04 01:49:28;;;;;;;1999.90;999.90;;;;;;;9.30;100.00;100504.94;10417297;28;20053;-67
2024/04/04 01:54:30;;;;;;;1999.90;999.90;;;;;;;9.32;100.00;100502.25;10417314;28;20493;-67
2024/04/04 01:59:31;;;;;;;1999.90;999.90;;;;;;;9.31;100.00;100493.53;10417847;28;20076;-67
2024/04/04 02:04:33;;;;;;;1999.90;999.90;;;;;;;9.09;100.00;100481.72;10416647;28;20453;-67
2024/04/04 02:09:36;;;;;;;1999.90;999.90;;;;;;;9.38;100.00;100474.00;10416780;28;20041;-68
2024/04/04 02:14:37;;;;;;;1999.90;999.90;;;;;;;9.44;100.00;100476.22;10417102;28;20135;-68
2024/04/04 02:19:39;;;;;;;1999.90;999.90;;;;;;;9.24;100.00;100468.69;10383764;28;20499;-68
2024/04/04 02:24:40;;;;;;;1999.90;999.90;;;;;;;9.30;100.00;100461.34;10415996;28;20061;-68
2024/04/04 02:29:44;;;;;;;1999.90;999.90;;;;;;;9.34;100.00;100446.34;10415441;28;20382;-68
2024/04/04 02:34:46;;;;;;;1999.90;999.90;;;;;;;9.19;100.00;100434.16;10398963;28;20083;-68
2024/04/04 02:39:47;;;;;;;1999.90;999.90;;;;;;;9.23;100.00;100428.69;10415874;28;20103;-67
2024/04/04 02:44:49;;;;;;;1999.90;999.90;;;;;;;9.38;100.00;100413.91;10415817;28;20083;-68
2024/04/04 02:49:51;;;;;;;1999.90;999.90;;;;;;;9.45;100.00;100417.00;10398796;28;20045;-68
2024/04/04 02:54:52;;;;;;;1999.90;999.90;;;;;;;9.36;100.00;100407.88;10414848;28;20073;-68
2024/04/04 02:59:53;;;;;;;1999.90;999.90;;;;;;;9.41;100.00;100394.56;10415282;28;20107;-68
2024/04/04 03:04:55;;;;;;;1999.90;999.90;;;;;;;9.23;100.00;100379.06;10415037;28;20056;-67
2024/04/04 03:09:56;;;;;;;1999.90;999.90;;;;;;;9.36;100.00;100367.88;10414814;28;20045;-67
2024/04/04 03:14:58;;;;;;;1999.90;999.90;;;;;;;9.32;100.00;100367.22;10397579;28;20049;-67
2024/04/04 03:19:59;;;;;;;1999.90;999.90;;;;;;;9.14;100.00;100366.50;10413666;28;20045;-68
2024/04/04 03:25:00;;;;;;;1999.90;999.90;;;;;;;9.12;100.00;100357.94;10413392;28;20516;-67
2024/04/04 03:30:02;;;;;;;1999.90;999.90;;;;;;;9.24;100.00;100351.16;10414051;28;20051;-68
2024/04/04 03:35:04;;;;;;;1999.90;999.90;;;;;;;9.21;100.00;100343.50;10413644;28;20057;-67
2024/04/04 03:40:06;;;;;;;1999.90;999.90;;;;;;;9.17;100.00;100344.63;10395959;28;20544;-67
2024/04/04 03:45:08;;;;;;;1999.90;999.90;;;;;;;9.29;100.00;100334.25;10413960;28;20053;-67
2024/04/04 03:50:09;;;;;;;1999.90;999.90;;;;;;;9.40;100.00;100325.81;10396878;28;20096;-67
2024/04/04 03:55:11;;;;;;;1999.90;999.90;;;;;;;9.36;100.00;100313.00;10413165;28;20065;-67
2024/04/04 04:00:12;;;;;;;1999.90;999.90;;;;;;;9.28;100.00;100305.66;10397135;28;20107;-67
2024/04/04 04:05:14;;;;;;;1999.90;999.90;;;;;;;9.35;100.00;100290.44;10413111;28;20493;-67
2024/04/04 04:10:15;;;;;;;1999.90;999.90;;;;;;;9.26;100.00;100291.81;10413268;28;20052;-67
2024/04/04 04:15:17;;;;;;;1999.90;999.90;;;;;;;9.15;100.00;100271.56;10412867;28;20500;-67
2024/04/04 04:25:38;;;;;;;1999.90;999.90;;;;;;;9.51;100.00;100285.09;10413296;28;20061;-68
2024/04/04 04:30:39;;;;;;;1999.90;999.90;;;;;;;9.47;100.00;100276.63;10412899;28;20045;-67
2024/04/04 04:35:41;;;;;;;1999.90;999.90;;;;;;;9.61;100.00;100273.97;10412651;28;20389;-68
2024/04/04 04:40:43;;;;;;;1999.90;999.90;;;;;;;9.46;100.00;100262.72;10413134;28;20054;-68
2024/04/04 04:45:44;;;;;;;1999.90;999.90;;;;;;;9.44;100.00;100272.41;10412456;28;20416;-67
2024/04/04 04:50:45;;;;;;;1999.90;999.90;;;;;;;9.59;100.00;100259.34;10415714;28;20400;-67
2024/04/04 04:55:51;;;;;;;1999.90;999.90;;;;;;;9.74;100.00;100261.00;10419833;28;20065;-67
2024/04/04 05:00:52;;;;;;;1999.90;999.90;;;;;;;9.86;100.00;100252.38;10420071;28;20046;-68
2024/04/04 05:05:54;;;;;;;1999.90;999.90;;;;;;;9.99;100.00;100234.16;10403566;28;20057;-68
2024/04/04 05:10:55;;;;;;;1999.90;999.90;;;;;;;10.03;100.00;100234.78;10402426;28;20041;-68
2024/04/04 05:15:57;;;;;;;1999.90;999.90;;;;;;;10.17;100.00;100232.13;10418871;28;20080;-68
2024/04/04 05:21:07;;;;;;;1999.90;999.90;;;;;;;10.19;100.00;100232.88;10418676;28;20430;-67
2024/04/04 05:26:08;;;;;;;1999.90;999.90;;;;;;;10.38;100.00;100221.22;10418476;28;20062;-68
2024/04/04 05:31:10;;;;;;;1999.90;999.90;;;;;;;10.54;100.00;100218.44;10418464;28;20049;-68
2024/04/04 05:36:11;;;;;;;1999.90;999.90;;;;;;;10.54;100.00;100208.81;10402435;28;20049;-67
2024/04/04 05:41:13;;;;;;;1999.90;999.90;;;;;;;10.60;100.00;100208.38;10418620;28;20062;-68
2024/04/04 05:46:14;;;;;;;1999.90;999.90;;;;;;;10.48;100.00;100209.22;10417607;28;20416;-67
2024/04/04 05:51:17;;;;;;;1999.90;999.90;;;;;;;10.59;100.00;100201.50;10417450;28;20484;-68
2024/04/04 05:56:18;;;;;;;1999.90;999.90;;;;;;;10.70;100.00;100194.69;10417360;28;20080;-68
2024/04/04 06:01:19;;;;;;;1999.90;999.90;;;;;;;10.87;100.00;100202.22;10416087;28;20092;-67
2024/04/04 06:06:21;;;;;;;1999.90;999.90;;;;;;;10.89;100.00;100182.03;10417503;28;20054;-68
2024/04/04 06:11:22;;;;;;;1999.90;999.90;;;;;;;11.00;100.00;100186.53;10416694;28;20481;-67
2024/04/04 06:16:24;;;;;;;1999.90;999.90;;;;;;;11.05;100.00;100187.03;10400255;28;20049;-67
2024/04/04 06:21:25;;;;;;;1999.90;999.90;;;;;;;11.00;100.00;100189.16;10416410;28;20496;-67
2024/04/04 06:26:28;;;;;;;1999.90;999.90;;;;;;;11.22;100.00;100185.03;10416238;28;20477;-68
2024/04/04 06:31:29;;;;;;;1999.90;999.90;;;;;;;11.13;100.00;100187.34;10416016;28;20045;-68
2024/04/04 06:36:31;;;;;;;1999.90;999.90;;;;;;;11.16;100.00;100188.91;10415792;28;20054;-67
2024/04/04 06:41:32;;;;;;;1999.90;999.90;;;;;;;11.41;100.00;100182.78;10415419;28;20045;-67
2024/04/04 06:46:33;;;;;;;1999.90;999.90;;;;;;;11.35;100.00;100185.88;10415519;28;20053;-68
2024/04/04 06:51:35;;;;;;;1999.90;999.90;;;;;;;11.34;100.00;100181.56;10415308;28;20042;-67
2024/04/04 06:56:36;;;;;;;1999.90;999.90;;;;;;;11.38;100.00;100185.66;10415060;28;20065;-68
2024/04/04 07:01:38;;;;;;;1999.90;999.90;;;;;;;11.43;100.00;100182.69;10415696;28;20049;-67
2024/04/04 07:06:39;;;;;;;1999.90;999.90;;;;;;;11.49;100.00;100174.41;10415348;28;20053;-68
2024/04/04 07:11:41;;;;;;;1999.90;999.90;;;;;;;11.43;100.00;100183.53;10414245;28;20049;-68
2024/04/04 07:16:43;;;;;;;1999.90;999.90;;;;;;;11.59;100.00;100182.44;10414974;28;20049;-68
2024/04/04 07:21:44;;;;;;;1999.90;999.90;;;;;;;11.67;100.00;100167.00;10414773;28;20064;-68
2024/04/04 07:26:48;;;;;;;1999.90;999.90;;;;;;;11.66;100.00;100179.25;10414680;28;20057;-67
2024/04/04 07:31:49;;;;;;;1999.90;999.90;;;;;;;11.59;100.00;100172.78;10414130;28;20056;-68
2024/04/04 07:36:51;;;;;;;1999.90;999.90;;;;;;;11.66;100.00;100166.16;10412503;28;20061;-67
2024/04/04 07:41:52;;;;;;;1999.90;999.90;;;;;;;11.56;100.00;100167.75;10413358;28;20053;-67
2024/04/04 07:46:54;;;;;;;1999.90;999.90;;;;;;;11.76;100.00;100150.59;10396342;28;20060;-68
2024/04/04 07:51:56;;;;;;;1999.90;999.90;;;;;;;11.75;100.00;100169.91;10396774;28;20053;-67
2024/04/04 07:56:57;;;;;;;1999.90;999.90;;;;;;;11.95;100.00;100173.72;10412888;28;20053;-68
2024/04/04 08:01:58;;;;;;;1999.90;999.90;;;;;;;11.90;100.00;100160.94;10413173;28;20054;-68
2024/04/04 08:07:00;;;;;;;1999.90;999.90;;;;;;;11.73;100.00;100168.34;10412008;28;20060;-67
2024/04/04 08:12:01;;;;;;;1999.90;999.90;;;;;;;11.88;100.00;100183.81;10412588;28;20049;-68
2024/04/04 08:17:03;;;;;;;1999.90;999.90;;;;;;;11.87;100.00;100178.69;10412891;28;20060;-68
2024/04/04 08:22:07;;;;;;;1999.90;999.90;;;;;;;12.13;100.00;100186.44;10381337;28;20050;-68
2024/04/04 08:27:09;;;;;;;1999.90;999.90;;;;;;;12.10;100.00;100184.88;10410080;28;20050;-68
2024/04/04 08:32:10;;;;;;;1999.90;999.90;;;;;;;12.03;100.00;100188.91;10395742;28;20046;-68
2024/04/04 08:37:12;;;;;;;1999.90;999.90;;;;;;;11.93;100.00;100199.22;10372356;28;20060;-68
2024/04/04 08:42:13;;;;;;;1999.90;999.90;;;;;;;11.97;100.00;100200.69;10383538;28;20058;-68
2024/04/04 08:47:16;;;;;;;1999.90;999.90;;;;;;;12.09;100.00;100206.84;10403246;28;20049;-68
2024/04/04 08:52:18;;;;;;;1999.90;999.90;;;;;;;12.08;100.00;100215.66;10390892;28;20045;-66
2024/04/04 08:57:21;;;;;;;1999.90;999.90;;;;;;;12.06;100.00;100222.81;10369044;28;20073;-68
2024/04/04 09:02:23;;;;;;;1999.90;999.90;;;;;;;12.12;100.00;100219.75;10419174;28;20058;-67
2024/04/04 09:07:25;;;;;;;1999.90;999.90;;;;;;;12.17;100.00;100212.38;10418747;28;20060;-67
2024/04/04 09:12:26;;;;;;;1999.90;999.90;;;;;;;12.42;100.00;100213.16;10417718;28;20107;-67
2024/04/04 09:17:27;;;;;;;1999.90;999.90;;;;;;;12.58;100.00;100213.69;10418564;28;20060;-67
2024/04/04 09:22:29;;;;;;;1999.90;999.90;;;;;;;12.56;100.00;100209.53;10418713;28;20046;-68
2024/04/04 09:27:31;;;;;;;1999.90;999.90;;;;;;;13.18;100.00;100203.03;10419115;28;20057;-67
2024/04/04 09:32:33;;;;;;;1999.90;999.90;;;;;;;12.88;100.00;100201.81;10401925;28;20484;-67
2024/04/04 09:37:34;;;;;;;1999.90;999.90;;;;;;;12.67;100.00;100203.44;10401486;28;20084;-67
2024/04/04 09:42:41;;;;;;;1999.90;999.90;;;;;;;12.81;100.00;100213.75;10417835;28;20049;-68
2024/04/04 09:47:44;;;;;;;1999.90;999.90;;;;;;;13.21;100.00;100210.66;10418418;28;20057;-67
2024/04/04 09:52:46;;;;;;;1999.90;999.90;;;;;;;13.26;100.00;100213.78;10400893;28;20053;-67
2024/04/04 09:57:48;;;;;;;1999.90;999.90;;;;;;;12.87;100.00;100215.06;10400719;28;20567;-68
2024/04/04 10:02:54;;;;;;;1999.90;999.90;;;;;;;12.60;100.00;100216.19;10401023;28;20075;-68
2024/04/04 10:08:05;;;;;;;1999.90;999.90;;;;;;;12.45;100.00;100223.44;10401380;28;20061;-67
2024/04/04 10:13:08;;;;;;;1999.90;999.90;;;;;;;12.67;100.00;100230.53;10417038;28;20053;-67
2024/04/04 10:18:11;;;;;;;1999.90;999.90;;;;;;;12.67;100.00;100224.47;10400876;28;20056;-68
2024/04/04 10:23:16;;;;;;;1999.90;999.90;;;;;;;12.93;100.00;100233.00;10400538;28;20053;-68
2024/04/04 10:28:18;;;;;;;1999.90;999.90;;;;;;;13.93;100.00;100241.00;10416431;28;20053;-68
2024/04/04 10:33:20;;;;;;;1999.90;999.90;;;;;;;13.61;100.00;100222.53;10399699;28;20444;-68
2024/04/04 10:38:21;;;;;;;1999.90;999.90;;;;;;;13.72;100.00;100238.31;10416355;28;20057;-68
2024/04/04 10:43:23;;;;;;;1999.90;999.90;;;;;;;13.72;100.00;100249.66;10415711;28;20408;-68
2024/04/04 10:48:24;;;;;;;1999.90;999.90;;;;;;;14.67;100.00;100242.91;10415316;28;20057;-68
2024/04/04 10:53:25;;;;;;;1999.90;999.90;;;;;;;16.24;91.17;100237.28;10398349;28;20050;-68
2024/04/04 10:58:30;;;;;;;1999.90;999.90;;;;;;;17.19;85.74;100237.44;10415411;28;20049;-68
2024/04/04 11:03:33;;;;;;;1999.90;999.90;;;;;;;16.93;83.92;100231.94;10398787;28;20068;-68
2024/04/04 11:08:34;;;;;;;1999.90;999.90;;;;;;;17.26;79.97;100236.72;10415116;28;20088;-68
2024/04/04 11:13:36;;;;;;;1999.90;999.90;;;;;;;16.18;81.70;100260.75;10415184;28;20069;-67
2024/04/04 11:18:38;;;;;;;1999.90;999.90;;;;;;;15.29;86.55;100270.19;10397867;28;20060;-68
2024/04/04 11:23:40;;;;;;;1999.90;999.90;;;;;;;15.98;85.27;100272.09;10414799;28;20083;-68
2024/04/04 11:28:42;;;;;;;1999.90;999.90;;;;;;;17.08;77.30;100249.03;10414601;28;20061;-68
2024/04/04 11:33:43;;;;;;;1999.90;999.90;;;;;;;16.20;80.25;100277.31;10414609;28;20053;-68
2024/04/04 11:38:45;;;;;;;1999.90;999.90;;;;;;;15.31;77.50;100291.97;10414347;28;20053;-68
2024/04/04 11:43:46;;;;;;;1999.90;999.90;;;;;;;15.24;78.09;100291.66;10413317;28;20405;-68
2024/04/04 11:48:47;;;;;;;1999.90;999.90;;;;;;;15.77;77.23;100295.13;10412720;28;20049;-68
2024/04/04 11:53:49;;;;;;;1999.90;999.90;;;;;;;16.49;71.79;100296.66;10412782;28;20390;-68
2024/04/04 11:58:51;;;;;;;1999.90;999.90;;;;;;;18.16;66.63;100287.28;10414256;28;20057;-68
2024/04/04 12:03:53;;;;;;;1999.90;999.90;;;;;;;15.61;67.46;100335.16;10421429;28;20408;-67
2024/04/04 12:08:54;;;;;;;1999.90;999.90;;;;;;;15.13;68.64;100327.81;10422157;28;20045;-68
2024/04/04 12:13:57;;;;;;;1999.90;999.90;;;;;;;15.75;69.61;100324.31;10405344;28;20057;-68
2024/04/04 12:24:22;;;;;;;1999.90;999.90;;;;;;;15.80;67.91;100337.06;10408008;28;20061;-68
2024/04/04 12:29:23;;;;;;;1999.90;999.90;;;;;;;15.53;72.82;100324.44;10405185;28;20053;-68
2024/04/04 12:34:25;;;;;;;1999.90;999.90;;;;;;;16.44;69.22;100329.72;10422075;28;20060;-70
2024/04/04 12:39:27;;;;;;;1999.90;999.90;;;;;;;15.76;71.45;100339.16;10404629;28;20049;-70
2024/04/04 12:44:28;;;;;;;1999.90;999.90;;;;;;;15.18;72.83;100362.53;10404455;28;20053;-69
2024/04/04 12:49:30;;;;;;;1999.90;999.90;;;;;;;15.34;72.15;100343.66;10419865;28;20516;-68
2024/04/04 12:54:31;;;;;;;1999.90;999.90;;;;;;;17.80;68.14;100349.88;10403921;28;20397;-68
2024/04/04 12:59:32;;;;;;;1999.90;999.90;;;;;;;16.70;69.88;100351.19;10403974;28;20123;-68
2024/04/04 13:04:34;;;;;;;1999.90;999.90;;;;;;;15.56;71.41;100345.28;10403388;28;20053;-68
2024/04/04 13:09:37;;;;;;;1999.90;999.90;;;;;;;14.77;79.96;100374.72;10362315;22;20050;-69
2024/04/04 13:14:39;;;;;;;1999.90;999.90;;;;;;;14.50;89.88;100399.69;10282991;28;20054;-68
2024/04/04 13:19:40;;;;;;;1999.90;999.90;;;;;;;13.49;93.11;100425.03;10281320;28;20493;-68
2024/04/04 13:24:42;;;;;;;1999.90;999.90;;;;;;;12.29;100.00;100432.88;10297293;28;20061;-67
2024/04/04 13:29:43;;;;;;;1999.90;999.90;;;;;;;14.19;100.00;100407.41;10297297;28;20050;-68
2024/04/04 13:34:45;;;;;;;1999.90;999.90;;;;;;;14.04;100.00;100417.31;10297479;28;20055;-67
2024/04/04 13:39:48;;;;;;;1999.90;999.90;;;;;;;15.84;92.86;100406.31;10297150;28;20066;-68
2024/04/04 13:44:50;;;;;;;1999.90;999.90;;;;;;;16.68;92.50;100414.75;10264746;28;20494;-68
2024/04/04 13:49:51;;;;;;;1999.90;999.90;;;;;;;15.75;89.83;100413.16;10279850;28;20077;-68
2024/04/04 13:54:53;;;;;;;1999.90;999.90;;;;;;;15.40;93.38;100404.63;10296445;28;20058;-69
2024/04/04 13:59:54;;;;;;;1999.90;999.90;;;;;;;14.29;93.21;100418.03;10296008;28;20055;-68
2024/04/04 14:04:56;;;;;;;1999.90;999.90;;;;;;;14.07;100.00;100445.19;10295447;28;20513;-69
2024/04/04 14:09:57;;;;;;;1999.90;999.90;;;;;;;14.17;100.00;100472.50;10295001;28;20487;-67
2024/04/04 14:14:59;;;;;;;1999.90;999.90;;;;;;;14.60;100.00;100444.59;10295160;28;20490;-68
2024/04/04 14:20:00;;;;;;;1999.90;999.90;;;;;;;16.04;95.19;100447.66;10295468;28;20059;-68
2024/04/04 14:25:01;;;;;;;1999.90;999.90;;;;;;;15.18;100.00;100439.00;10294036;28;20482;-68
2024/04/04 14:30:03;;;;;;;1999.90;999.90;;;;;;;14.28;100.00;100438.25;10294501;28;20383;-68
2024/04/04 14:35:05;;;;;;;1999.90;999.90;;;;;;;14.26;100.00;100442.81;10311185;28;20051;-68
2024/04/04 14:40:07;;;;;;;1999.90;999.90;;;;;;;14.02;100.00;100444.72;10294002;28;20470;-68
2024/04/04 14:45:11;;;;;;;1999.90;999.90;;;;;;;13.71;100.00;100462.84;10294621;28;20062;-68
2024/04/04 14:50:12;;;;;;;1999.90;999.90;;;;;;;12.90;100.00;100483.66;10293542;28;20054;-68
2024/04/04 14:55:14;;;;;;;1999.90;999.90;;;;;;;12.90;100.00;100486.28;10294518;28;20058;-68
2024/04/04 15:00:16;;;;;;;1999.90;999.90;;;;;;;12.76;100.00;100499.56;10294337;28;20043;-69
2024/04/04 15:05:17;;;;;;;1999.90;999.90;;;;;;;12.72;100.00;100504.19;10277267;28;20059;-68
2024/04/04 15:10:19;;;;;;;1999.90;999.90;;;;;;;12.76;100.00;100515.31;10291509;28;20113;-68
2024/04/04 15:15:21;;;;;;;1999.90;999.90;;;;;;;12.78;100.00;100509.03;10292786;28;20078;-68
2024/04/04 15:20:23;;;;;;;1999.90;999.90;;;;;;;14.77;100.00;100503.84;10292450;28;20421;-68
2024/04/04 15:25:26;;;;;;;1999.90;999.90;;;;;;;14.07;100.00;100506.59;10277214;28;20082;-68
2024/04/04 15:30:28;;;;;;;1999.90;999.90;;;;;;;14.98;91.00;100504.78;10292386;28;20425;-68
2024/04/04 15:35:29;;;;;;;1999.90;999.90;;;;;;;14.34;95.20;100513.31;10292233;28;20561;-68
2024/04/04 15:40:31;;;;;;;1999.90;999.90;;;;;;;14.14;100.00;100520.13;10276611;28;20101;-68
2024/04/04 15:45:34;;;;;;;1999.90;999.90;;;;;;;14.02;100.00;100511.38;10292468;28;20050;-68
2024/04/04 15:50:36;;;;;;;1999.90;999.90;;;;;;;14.33;97.85;100522.16;10276299;28;20046;-68
2024/04/04 15:55:37;;;;;;;1999.90;999.90;;;;;;;15.11;94.22;100517.78;10292487;28;20061;-68
2024/04/04 16:00:38;;;;;;;1999.90;999.90;;;;;;;14.25;93.49;100524.56;10292253;28;20057;-68
2024/04/04 16:05:40;;;;;;;1999.90;999.90;;;;;;;14.45;96.94;100534.38;10291907;28;20055;-69
2024/04/04 16:10:41;;;;;;;1999.90;999.90;;;;;;;14.97;93.73;100541.78;10291610;28;20055;-69
2024/04/04 16:15:43;;;;;;;1999.90;999.90;;;;;;;14.66;89.50;100549.50;10291405;28;20495;-68
2024/04/04 16:20:44;;;;;;;1999.90;999.90;;;;;;;14.84;92.85;100555.09;10291712;28;20055;-69
2024/04/04 16:25:45;;;;;;;1999.90;999.90;;;;;;;14.31;90.05;100558.31;10291953;28;20062;-69
2024/04/04 16:30:47;;;;;;;1999.90;999.90;;;;;;;14.16;90.91;100572.66;10291500;28;20062;-69
2024/04/04 16:35:48;;;;;;;1999.90;999.90;;;;;;;13.72;90.21;100586.41;10291758;28;20059;-69
2024/04/04 16:40:50;;;;;;;1999.90;999.90;;;;;;;13.89;90.48;100589.59;10275179;28;20051;-69
2024/04/04 16:45:51;;;;;;;1999.90;999.90;;;;;;;13.80;89.35;100599.00;10293655;28;20055;-69
2024/04/04 16:50:53;;;;;;;1999.90;999.90;;;;;;;13.93;90.25;100612.06;10298224;28;20110;-68
2024/04/04 16:55:55;;;;;;;1999.90;999.90;;;;;;;13.59;90.35;100614.56;10298074;28;20062;-69
2024/04/04 17:00:56;;;;;;;1999.90;999.90;;;;;;;13.64;90.76;100619.50;10298683;28;20093;-68
2024/04/04 17:05:58;;;;;;;1999.90;999.90;;;;;;;13.60;89.59;100647.81;10297895;28;20059;-69
2024/04/04 17:11:00;;;;;;;1999.90;999.90;;;;;;;13.55;90.46;100657.84;10296979;28;20525;-69
2024/04/04 17:16:04;;;;;;;1999.90;999.90;;;;;;;13.63;90.99;100641.47;10281551;28;20046;-68
2024/04/04 17:21:06;;;;;;;1999.90;999.90;;;;;;;13.66;89.25;100655.25;10297702;28;20057;-69
2024/04/04 17:26:07;;;;;;;1999.90;999.90;;;;;;;13.50;91.47;100676.56;10297157;28;20434;-69
2024/04/04 17:31:08;;;;;;;1999.90;999.90;;;;;;;13.26;89.83;100684.34;10280994;28;20047;-68
2024/04/04 17:36:10;;;;;;;1999.90;999.90;;;;;;;13.30;88.65;100677.94;10297353;28;20058;-68
2024/04/04 17:41:11;;;;;;;1999.90;999.90;;;;;;;13.16;89.67;100675.44;10281105;28;20067;-69
2024/04/04 17:46:13;;;;;;;1999.90;999.90;;;;;;;13.24;89.03;100691.53;10296450;28;20051;-68
2024/04/04 17:51:14;;;;;;;1999.90;999.90;;;;;;;13.17;90.66;100700.78;10296057;28;20051;-68
2024/04/04 17:56:16;;;;;;;1999.90;999.90;;;;;;;13.25;90.57;100710.78;10295311;28;20057;-68
2024/04/04 18:01:17;;;;;;;1999.90;999.90;;;;;;;13.14;91.15;100711.50;10296212;28;20051;-69
2024/04/04 18:06:19;;;;;;;1999.90;999.90;;;;;;;13.03;91.99;100722.78;10295213;28;20466;-68
2024/04/04 18:11:20;;;;;;;1999.90;999.90;;;;;;;13.13;92.38;100738.72;10294923;28;20051;-68
2024/04/04 18:16:22;;;;;;;1999.90;999.90;;;;;;;13.08;91.79;100754.84;10295387;28;20062;-68
2024/04/04 18:21:23;;;;;;;1999.90;999.90;;;;;;;13.03;91.83;100754.31;10294833;28;20043;-68
2024/04/04 18:26:24;;;;;;;1999.90;999.90;;;;;;;13.26;92.38;100751.88;10279353;28;20054;-69
2024/04/04 18:31:26;;;;;;;1999.90;999.90;;;;;;;13.21;93.07;100767.97;10294726;28;20059;-69
2024/04/04 18:36:27;;;;;;;1999.90;999.90;;;;;;;13.20;91.67;100772.41;10294370;28;20414;-69
2024/04/04 18:41:29;;;;;;;1999.90;999.90;;;;;;;13.32;92.28;100764.66;10277949;28;20050;-69
2024/04/04 18:46:31;;;;;;;1999.90;999.90;;;;;;;12.94;95.25;100778.59;10278514;28;20059;-69
2024/04/04 18:51:33;;;;;;;1999.90;999.90;;;;;;;12.79;93.73;100778.69;10293811;28;20051;-69
2024/04/04 18:56:34;;;;;;;1999.90;999.90;;;;;;;13.06;92.63;100780.38;10277176;28;20050;-69
2024/04/04 19:01:37;;;;;;;1999.90;999.90;;;;;;;12.84;95.81;100794.13;10293918;28;20093;-69
2024/04/04 19:06:38;;;;;;;1999.90;999.90;;;;;;;12.85;95.23;100800.25;10277034;28;20494;-69
2024/04/04 19:11:39;;;;;;;1999.90;999.90;;;;;;;12.97;94.07;100794.16;10292559;28;20053;-69
2024/04/04 19:16:41;;;;;;;1999.90;999.90;;;;;;;12.91;94.11;100800.66;10293368;28;20058;-68
2024/04/04 19:21:44;;;;;;;1999.90;999.90;;;;;;;12.99;92.76;100806.25;10293040;28;20058;-69
2024/04/04 19:26:45;;;;;;;1999.90;999.90;;;;;;;12.96;92.48;100818.75;10276739;28;20054;-69
2024/04/04 19:31:50;;;;;;;1999.90;999.90;;;;;;;13.15;92.59;100824.44;10292276;28;20567;-68
2024/04/04 19:36:51;;;;;;;1999.90;999.90;;;;;;;13.09;91.63;100832.75;10292695;28;20059;-69
2024/04/04 19:41:53;;;;;;;1999.90;999.90;;;;;;;12.92;91.04;100827.78;10292566;28;20050;-69
2024/04/04 19:46:54;;;;;;;1999.90;999.90;;;;;;;12.75;94.19;100828.91;10292895;28;20046;-69
2024/04/04 19:51:56;;;;;;;1999.90;999.90;;;;;;;12.68;94.34;100828.47;10292035;28;20062;-69
2024/04/04 19:56:57;;;;;;;1999.90;999.90;;;;;;;12.64;95.01;100833.09;10276104;28;20063;-69
2024/04/04 20:01:58;;;;;;;1999.90;999.90;;;;;;;12.54;97.16;100855.63;10275598;28;20433;-69
2024/04/04 20:07:00;;;;;;;1999.90;999.90;;;;;;;12.60;95.40;100851.75;10291925;28;20046;-69
2024/04/04 20:12:02;;;;;;;1999.90;999.90;;;;;;;12.50;96.56;100854.13;10291411;28;20098;-69
2024/04/04 20:17:03;;;;;;;1999.90;999.90;;;;;;;12.17;100.00;100858.00;10291796;28;20062;-69
2024/04/04 20:22:05;;;;;;;1999.90;999.90;;;;;;;12.28;94.98;100852.06;10295929;28;20061;-69
2024/04/04 20:27:06;;;;;;;1999.90;999.90;;;;;;;12.29;95.23;100855.50;10299299;28;20494;-68
2024/04/04 20:32:08;;;;;;;1999.90;999.90;;;;;;;12.26;92.11;100848.69;10299066;28;20072;-68
2024/04/04 20:37:09;;;;;;;1999.90;999.90;;;;;;;12.19;93.50;100858.72;10298630;28;20054;-68
2024/04/04 20:42:10;;;;;;;1999.90;999.90;;;;;;;12.11;91.93;100855.75;10298498;28;20051;-68
2024/04/04 20:47:12;;;;;;;1999.90;999.90;;;;;;;12.20;91.13;100856.94;10298364;28;20513;-68
2024/04/04 20:52:13;;;;;;;1999.90;999.90;;;;;;;12.17;91.36;100870.25;10298563;28;20550;-68
2024/04/04 20:57:15;;;;;;;1999.90;999.90;;;;;;;11.62;98.13;100870.06;10297922;28;20058;-68
2024/04/04 21:02:16;;;;;;;1999.90;999.90;;;;;;;11.53;100.00;100870.63;10298488;28;20055;-69
2024/04/04 21:07:18;;;;;;;1999.90;999.90;;;;;;;11.37;100.00;100882.97;10297193;28;20449;-69
2024/04/04 21:12:19;;;;;;;1999.90;999.90;;;;;;;11.12;100.00;100897.50;10297597;28;20105;-68
2024/04/04 21:17:21;;;;;;;1999.90;999.90;;;;;;;11.32;100.00;100906.84;10297399;28;20059;-68
2024/04/04 21:22:22;;;;;;;1999.90;999.90;;;;;;;11.21;100.00;100910.06;10282015;28;20050;-68
2024/04/04 21:27:24;;;;;;;1999.90;999.90;;;;;;;10.87;100.00;100904.16;10297669;28;20062;-68
2024/04/04 21:32:25;;;;;;;1999.90;999.90;;;;;;;10.93;100.00;100906.44;10296323;28;20057;-68
2024/04/04 21:37:26;;;;;;;1999.90;999.90;;;;;;;10.88;100.00;100905.03;10296732;28;20058;-68
2024/04/04 21:42:29;;;;;;;1999.90;999.90;;;;;;;10.51;100.00;100907.09;10296634;28;20475;-68
2024/04/04 21:47:31;;;;;;;1999.90;999.90;;;;;;;10.72;100.00;100912.88;10296688;28;20059;-68
2024/04/04 21:52:32;;;;;;;1999.90;999.90;;;;;;;10.33;100.00;100904.53;10280054;28;20121;-68
2024/04/04 21:57:34;;;;;;;1999.90;999.90;;;;;;;10.39;100.00;100898.13;10296370;28;20058;-68